Time;durP1;ratioP1;P1;durP2;ratioP2;P2;SDS_P1;SDS_P2;PMS_P1;PMS_P2;Temp;Humidity;BMP_temperature;BMP_pressure;BME280_temperature;BME280_humidity;BME280_pressure;Samples;Min_cycle;Max_cycle;Signal;HPM_P1;HPM_P2
2023/04/23 00:01:59;;;;;;;;;;;;;;;15.05;67.67;97952.34;5045390;28;19917;-81
2023/04/23 00:04:26;;;;;;;;;;;;;;;14.90;68.43;97955.31;5059354;28;19948;-83
2023/04/23 00:06:51;;;;;;;;;;;;;;;14.70;69.30;97956.50;5058460;28;19931;-82
2023/04/23 00:09:17;;;;;;;;;;;;;;;14.94;67.76;97949.06;5059373;28;20011;-83
2023/04/23 00:11:42;;;;;;;;;;;;;;;15.05;67.45;97946.19;5052875;28;19916;-82
2023/04/23 00:14:07;;;;;;;;;;;;;;;14.92;67.74;97945.06;5058745;28;19916;-82
2023/04/23 00:16:33;;;;;;;;;;;;;;;15.04;67.80;97937.31;5034447;28;19921;-82
2023/04/23 00:18:58;;;;;;;;;;;;;;;15.03;68.07;97944.59;5037092;28;20020;-82
2023/04/23 00:21:24;;;;;;;;;;;;;;;14.93;68.51;97944.00;5023607;28;19917;-84
2023/04/23 00:23:49;;;;;;;;;;;;;;;15.17;67.45;97947.28;5058736;28;19928;-81
2023/04/23 00:26:17;;;;;;;;;;;;;;;15.23;67.52;97943.38;5059910;28;19932;-80
2023/04/23 00:28:42;;;;;;;;;;;;;;;15.15;67.62;97945.97;5057010;28;19917;-80
2023/04/23 00:31:07;;;;;;;;;;;;;;;15.22;67.07;97939.13;5058564;28;20296;-80
2023/04/23 00:33:33;;;;;;;;;;;;;;;15.17;67.51;97947.28;5061489;28;20292;-84
2023/04/23 00:35:58;;;;;;;;;;;;;;;15.02;68.94;97943.00;5043331;28;19921;-82
2023/04/23 00:38:25;;;;;;;;;;;;;;;15.05;68.64;97943.50;5056351;28;20301;-82
2023/04/23 00:40:50;;;;;;;;;;;;;;;14.83;70.04;97933.44;5058159;28;19928;-81
2023/04/23 00:43:16;;;;;;;;;;;;;;;14.91;69.54;97938.91;5044272;28;19916;-82
2023/04/23 00:45:41;;;;;;;;;;;;;;;14.89;70.48;97938.44;5061952;28;19917;-85
2023/04/23 00:48:07;;;;;;;;;;;;;;;14.94;70.56;97932.13;5046464;28;19976;-83
2023/04/23 00:50:32;;;;;;;;;;;;;;;14.68;72.48;97942.56;5037363;28;20599;-79
2023/04/23 00:52:57;;;;;;;;;;;;;;;14.83;71.37;97936.91;5055486;28;19962;-80
2023/04/23 00:55:23;;;;;;;;;;;;;;;14.69;72.18;97938.81;5049696;28;20287;-80
2023/04/23 00:57:48;;;;;;;;;;;;;;;14.74;72.59;97943.28;5052973;28;19913;-77
2023/04/23 01:00:14;;;;;;;;;;;;;;;14.71;72.16;97936.63;5051654;28;20389;-77
2023/04/23 01:02:40;;;;;;;;;;;;;;;14.70;72.21;97935.00;5038786;28;21393;-81
2023/04/23 01:05:06;;;;;;;;;;;;;;;14.73;72.63;97944.38;5052783;28;19928;-77
2023/04/23 01:07:33;;;;;;;;;;;;;;;14.57;73.34;97935.00;5053760;28;19917;-79
2023/04/23 01:09:58;;;;;;;;;;;;;;;14.77;72.65;97927.34;5035642;28;19916;-77
2023/04/23 01:12:24;;;;;;;;;;;;;;;14.73;73.48;97921.00;5054576;28;20391;-81
2023/04/23 01:14:49;;;;;;;;;;;;;;;14.58;73.98;97928.53;5038637;28;19936;-81
2023/04/23 01:17:15;;;;;;;;;;;;;;;14.64;73.48;97924.66;5054348;28;20538;-82
2023/04/23 01:19:40;;;;;;;;;;;;;;;14.65;73.25;97929.75;5037448;28;19921;-80
2023/04/23 01:22:09;;;;;;;;;;;;;;;14.67;73.68;97924.88;5037831;28;19921;-79
2023/04/23 01:24:35;;;;;;;;;;;;;;;14.66;73.43;97934.00;5047042;28;19999;-79
2023/04/23 01:27:01;;;;;;;;;;;;;;;14.51;74.31;97926.22;5054220;28;19963;-79
2023/04/23 01:29:27;;;;;;;;;;;;;;;14.21;76.80;97937.47;5050229;28;19912;-81
2023/04/23 01:31:53;;;;;;;;;;;;;;;14.26;76.53;97927.44;5052993;28;20392;-84
2023/04/23 01:34:18;;;;;;;;;;;;;;;14.25;76.74;97922.38;5049685;28;19921;-81
2023/04/23 01:36:44;;;;;;;;;;;;;;;14.48;75.20;97931.41;5047330;28;20012;-87
2023/04/23 01:39:09;;;;;;;;;;;;;;;14.56;75.34;97925.34;5055378;28;20386;-80
2023/04/23 01:41:34;;;;;;;;;;;;;;;14.58;75.32;97929.34;5036921;28;19964;-79
2023/04/23 01:44:00;;;;;;;;;;;;;;;14.61;75.32;97934.09;5058835;28;19951;-80
2023/04/23 01:46:26;;;;;;;;;;;;;;;14.32;76.55;97928.19;5035107;28;20382;-81
2023/04/23 01:48:51;;;;;;;;;;;;;;;14.13;77.83;97927.41;5037204;28;19928;-79
2023/04/23 01:51:17;;;;;;;;;;;;;;;14.30;77.00;97925.00;5035503;28;19921;-79
2023/04/23 01:53:42;;;;;;;;;;;;;;;14.43;76.20;97926.94;5056096;28;19940;-82
2023/04/23 01:56:09;;;;;;;;;;;;;;;14.23;77.56;97924.56;5054558;28;19917;-82
2023/04/23 01:58:35;;;;;;;;;;;;;;;14.37;76.79;97924.63;5051729;28;19916;-79
2023/04/23 02:01:00;;;;;;;;;;;;;;;14.41;76.87;97931.78;5048833;28;19921;-80
2023/04/23 02:03:27;;;;;;;;;;;;;;;14.27;77.09;97928.22;5050899;28;19974;-80
2023/04/23 02:05:53;;;;;;;;;;;;;;;14.02;78.97;97928.66;5054355;28;19921;-79
2023/04/23 02:08:22;;;;;;;;;;;;;;;14.31;77.37;97931.94;5052919;28;19921;-81
2023/04/23 02:10:47;;;;;;;;;;;;;;;14.33;77.20;97929.78;5050476;28;20372;-81
2023/04/23 02:13:13;;;;;;;;;;;;;;;14.24;78.34;97924.25;5055103;28;19920;-82
2023/04/23 02:15:39;;;;;;;;;;;;;;;14.01;79.05;97932.44;5037452;28;19935;-79
2023/04/23 02:18:05;;;;;;;;;;;;;;;14.33;77.50;97935.13;5054263;28;19913;-79
2023/04/23 02:20:30;;;;;;;;;;;;;;;14.33;77.09;97929.78;5051361;28;20019;-79
2023/04/23 02:22:56;;;;;;;;;;;;;;;14.40;77.15;97929.38;5034496;28;20377;-79
2023/04/23 02:25:21;;;;;;;;;;;;;;;14.07;78.43;97936.63;5052135;28;19929;-80
2023/04/23 02:27:47;;;;;;;;;;;;;;;13.88;79.65;97938.53;5052824;28;20297;-78
2023/04/23 02:30:13;;;;;;;;;;;;;;;14.10;78.14;97944.09;5052615;28;19916;-79
2023/04/23 02:32:38;;;;;;;;;;;;;;;13.97;79.44;97944.84;5035102;28;19923;-79
2023/04/23 02:35:05;;;;;;;;;;;;;;;14.28;78.20;97943.25;5050040;28;19960;-81
2023/04/23 02:37:34;;;;;;;;;;;;;;;14.32;77.85;97941.63;5053447;28;20381;-81
2023/04/23 02:39:59;;;;;;;;;;;;;;;14.29;77.85;97936.81;5044978;28;19932;-84
2023/04/23 02:42:24;;;;;;;;;;;;;;;14.33;78.36;97940.50;5035609;28;19948;-81
2023/04/23 02:44:50;;;;;;;;;;;;;;;14.37;77.75;97930.00;5051973;28;20015;-82
2023/04/23 02:47:16;;;;;;;;;;;;;;;14.35;78.30;97932.94;5033830;28;19979;-81
2023/04/23 02:49:41;;;;;;;;;;;;;;;14.37;78.31;97936.16;5037323;28;20296;-82
2023/04/23 02:52:06;;;;;;;;;;;;;;;14.41;78.09;97939.84;5059456;28;19921;-82
2023/04/23 02:54:31;;;;;;;;;;;;;;;14.38;77.85;97942.31;5054918;28;19987;-80
2023/04/23 02:56:57;;;;;;;;;;;;;;;14.44;77.87;97952.66;5036063;28;19927;-80
2023/04/23 02:59:22;;;;;;;;;;;;;;;14.33;78.11;97953.94;5054588;28;20324;-78
2023/04/23 03:01:48;;;;;;;;;;;;;;;13.98;79.96;97960.63;5036408;28;19928;-79
2023/04/23 03:04:13;;;;;;;;;;;;;;;13.49;81.60;97954.91;5019095;28;19956;-79
2023/04/23 03:06:38;;;;;;;;;;;;;;;13.80;80.38;97957.97;5053919;28;19925;-79
2023/04/23 03:09:03;;;;;;;;;;;;;;;13.89;79.83;97966.97;5034363;28;19947;-80
2023/04/23 03:11:29;;;;;;;;;;;;;;;13.74;79.69;97969.88;5053587;28;19967;-80
2023/04/23 03:13:54;;;;;;;;;;;;;;;13.93;79.08;97973.34;5020880;28;19944;-79
2023/04/23 03:16:19;;;;;;;;;;;;;;;13.75;79.49;97968.75;5050121;28;19916;-82
2023/04/23 03:18:44;;;;;;;;;;;;;;;13.63;80.08;97971.09;5015460;28;20010;-79
2023/04/23 03:21:10;;;;;;;;;;;;;;;13.57;80.33;97972.22;5053887;28;19920;-80
2023/04/23 03:23:35;;;;;;;;;;;;;;;13.55;79.99;97967.16;5053667;28;19959;-78
2023/04/23 03:26:01;;;;;;;;;;;;;;;13.46;79.99;97963.53;5035776;28;19987;-80
2023/04/23 03:28:26;;;;;;;;;;;;;;;13.59;79.58;97962.00;5035026;28;19949;-81
2023/04/23 03:30:51;;;;;;;;;;;;;;;13.58;79.65;97965.78;5050339;28;19994;-80
2023/04/23 03:33:16;;;;;;;;;;;;;;;13.53;79.60;97964.78;5033626;28;19944;-80
2023/04/23 03:35:42;;;;;;;;;;;;;;;13.54;79.65;97965.59;5018257;28;19939;-79
2023/04/23 03:38:07;;;;;;;;;;;;;;;13.45;79.79;97965.41;5035610;28;19916;-78
2023/04/23 03:40:32;;;;;;;;;;;;;;;13.43;80.01;97959.53;5028826;28;20534;-80
2023/04/23 03:42:58;;;;;;;;;;;;;;;13.43;79.40;97964.13;5047986;28;20396;-80
2023/04/23 03:45:23;;;;;;;;;;;;;;;13.37;79.90;97954.53;5032475;28;19940;-82
2023/04/23 03:47:49;;;;;;;;;;;;;;;13.28;79.97;97961.63;5053422;28;20262;-81
2023/04/23 03:50:16;;;;;;;;;;;;;;;13.30;79.64;97970.97;5035559;28;19928;-81
2023/04/23 03:52:41;;;;;;;;;;;;;;;13.30;79.79;97964.81;5034889;28;19921;-81
2023/04/23 03:55:07;;;;;;;;;;;;;;;13.23;80.29;97967.84;5049463;28;20388;-79
2023/04/23 03:57:32;;;;;;;;;;;;;;;13.20;80.19;97978.34;5052151;28;19932;-78
2023/04/23 03:59:57;;;;;;;;;;;;;;;13.15;80.28;97987.22;5034794;28;19924;-78
2023/04/23 04:02:22;;;;;;;;;;;;;;;13.10;80.20;97981.13;5031148;28;19917;-79
2023/04/23 04:04:50;;;;;;;;;;;;;;;13.02;80.41;97979.06;5053060;28;19923;-77
2023/04/23 04:07:15;;;;;;;;;;;;;;;12.92;80.46;97985.31;5035591;28;20511;-77
2023/04/23 04:09:41;;;;;;;;;;;;;;;12.73;81.11;97998.63;5038224;28;19921;-77
2023/04/23 04:12:06;;;;;;;;;;;;;;;12.97;80.01;97997.88;5038091;28;19920;-77
2023/04/23 04:14:31;;;;;;;;;;;;;;;13.10;79.72;98000.69;5055989;28;19928;-78
2023/04/23 04:16:57;;;;;;;;;;;;;;;13.02;80.06;98006.63;5034793;28;19929;-78
2023/04/23 04:19:22;;;;;;;;;;;;;;;13.00;80.26;98008.00;5036248;28;19929;-78
2023/04/23 04:21:48;;;;;;;;;;;;;;;13.08;79.45;98010.09;5052646;28;19951;-77
2023/04/23 04:24:13;;;;;;;;;;;;;;;13.26;79.39;98012.00;5053967;28;19917;-78
2023/04/23 04:26:39;;;;;;;;;;;;;;;12.99;79.62;98012.56;5033133;28;19928;-77
2023/04/23 04:29:04;;;;;;;;;;;;;;;13.18;79.52;98013.47;5042128;28;19920;-77
2023/04/23 04:31:31;;;;;;;;;;;;;;;13.19;79.27;98023.06;5038465;28;19925;-78
2023/04/23 04:33:56;;;;;;;;;;;;;;;13.03;79.99;98020.84;5062155;28;19921;-80
2023/04/23 04:36:24;;;;;;;;;;;;;;;13.17;79.73;98008.41;5057413;28;19967;-80
2023/04/23 04:38:50;;;;;;;;;;;;;;;12.88;80.58;98016.44;5038445;28;19963;-80
2023/04/23 04:41:15;;;;;;;;;;;;;;;13.25;79.50;98021.97;5038538;28;19946;-81
2023/04/23 04:43:42;;;;;;;;;;;;;;;13.27;79.30;98025.16;5038468;28;20401;-81
2023/04/23 04:46:10;;;;;;;;;;;;;;;13.29;79.27;98024.84;5037533;28;19974;-80
2023/04/23 04:48:35;;;;;;;;;;;;;;;13.21;79.51;98028.97;5055069;28;19940;-79
2023/04/23 04:51:01;;;;;;;;;;;;;;;13.27;79.21;98027.03;5056704;28;19921;-80
2023/04/23 04:53:26;;;;;;;;;;;;;;;13.29;79.30;98028.34;5037201;28;19952;-80
2023/04/23 04:55:51;;;;;;;;;;;;;;;13.23;79.67;98024.13;5055829;28;19923;-80
2023/04/23 04:58:16;;;;;;;;;;;;;;;13.25;79.48;98026.53;5036334;28;19921;-80
2023/04/23 05:00:42;;;;;;;;;;;;;;;13.17;79.87;98040.56;5054714;28;19943;-80
2023/04/23 05:03:07;;;;;;;;;;;;;;;13.13;80.05;98042.19;5020572;28;19921;-81
2023/04/23 05:05:32;;;;;;;;;;;;;;;13.19;79.94;98033.03;5052774;28;19933;-80
2023/04/23 05:08:00;;;;;;;;;;;;;;;13.14;79.87;98035.75;5052338;28;19967;-80
2023/04/23 05:10:26;;;;;;;;;;;;;;;13.24;79.81;98036.44;5051651;28;20411;-79
2023/04/23 05:12:51;;;;;;;;;;;;;;;12.80;81.43;98035.78;5039065;28;19917;-81
2023/04/23 05:15:17;;;;;;;;;;;;;;;13.13;80.20;98040.31;5053234;28;19923;-84
2023/04/23 05:17:42;;;;;;;;;;;;;;;13.25;80.04;98054.13;5058613;28;19917;-83
2023/04/23 05:20:11;;;;;;;;;;;;;;;13.07;80.56;98044.13;5038036;28;19920;-83
2023/04/23 05:22:37;;;;;;;;;;;;;;;13.20;80.08;98050.69;5053096;28;20369;-80
2023/04/23 05:25:03;;;;;;;;;;;;;;;13.13;80.56;98042.97;5037612;28;20031;-81
2023/04/23 05:27:29;;;;;;;;;;;;;;;13.29;79.96;98041.75;5054681;28;19944;-82
2023/04/23 05:29:54;;;;;;;;;;;;;;;13.40;79.49;98039.75;5051761;28;19962;-79
2023/04/23 05:32:19;;;;;;;;;;;;;;;13.07;80.90;98038.75;5052486;28;19967;-80
2023/04/23 05:34:44;;;;;;;;;;;;;;;13.31;79.79;98042.25;5053469;28;19968;-78
2023/04/23 05:37:10;;;;;;;;;;;;;;;13.33;79.63;98042.75;5050797;28;19932;-80
2023/04/23 05:39:35;;;;;;;;;;;;;;;13.25;80.20;98046.09;5054455;28;19929;-80
2023/04/23 05:42:01;;;;;;;;;;;;;;;13.33;80.16;98045.44;5052349;28;19927;-79
2023/04/23 05:44:27;;;;;;;;;;;;;;;13.51;79.55;98047.38;5037101;28;19928;-79
2023/04/23 05:46:52;;;;;;;;;;;;;;;13.46;79.79;98047.44;5036101;28;19925;-81
2023/04/23 05:49:18;;;;;;;;;;;;;;;13.54;79.57;98052.16;5058561;28;19938;-80
2023/04/23 05:51:43;;;;;;;;;;;;;;;13.25;80.46;98054.13;5034046;28;19920;-80
2023/04/23 05:54:08;;;;;;;;;;;;;;;13.40;80.51;98047.78;5055114;28;19924;-80
2023/04/23 05:56:33;;;;;;;;;;;;;;;13.41;80.40;98038.66;5020236;28;19921;-81
2023/04/23 05:59:02;;;;;;;;;;;;;;;12.29;84.39;98030.06;5040739;28;19920;-83
2023/04/23 06:01:27;;;;;;;;;;;;;;;12.03;86.95;98031.31;5018687;28;19917;-79
2023/04/23 06:03:53;;;;;;;;;;;;;;;12.73;83.92;98044.13;5048429;28;19927;-79
2023/04/23 06:06:18;;;;;;;;;;;;;;;13.02;82.17;98054.84;5039311;28;20020;-80
2023/04/23 06:08:43;;;;;;;;;;;;;;;13.31;81.09;98057.53;5057103;28;19932;-79
2023/04/23 06:11:08;;;;;;;;;;;;;;;13.29;81.00;98060.50;5040341;28;19928;-78
2023/04/23 06:13:39;;;;;;;;;;;;;;;13.34;80.52;98057.78;5038410;28;20418;-78
2023/04/23 06:16:04;;;;;;;;;;;;;;;13.20;81.56;98069.44;5056279;28;20633;-79
2023/04/23 06:18:30;;;;;;;;;;;;;;;13.22;81.48;98064.59;5055305;28;19921;-79
2023/04/23 06:20:56;;;;;;;;;;;;;;;13.38;80.89;98077.56;5057697;28;19921;-78
2023/04/23 06:23:21;;;;;;;;;;;;;;;13.39;80.65;98073.78;5037838;28;20347;-80
2023/04/23 06:25:46;;;;;;;;;;;;;;;13.42;80.38;98080.47;5056523;28;19924;-80
2023/04/23 06:28:11;;;;;;;;;;;;;;;12.72;84.80;98087.28;5054590;28;20027;-80
2023/04/23 06:30:37;;;;;;;;;;;;;;;13.14;82.32;98079.44;5036984;28;19921;-83
2023/04/23 06:33:02;;;;;;;;;;;;;;;13.24;81.60;98079.31;5015967;28;20027;-80
2023/04/23 06:35:28;;;;;;;;;;;;;;;13.13;82.73;98072.44;5052637;28;19917;-78
2023/04/23 06:37:53;;;;;;;;;;;;;;;13.40;81.31;98078.06;5040421;28;19917;-79
2023/04/23 06:40:19;;;;;;;;;;;;;;;13.32;81.65;98076.00;5036570;28;19929;-78
2023/04/23 06:42:44;;;;;;;;;;;;;;;13.03;83.76;98069.06;5021880;28;19929;-78
2023/04/23 06:45:10;;;;;;;;;;;;;;;13.29;82.30;98068.53;5039196;28;20391;-80
2023/04/23 06:47:35;;;;;;;;;;;;;;;13.22;84.93;98068.06;5036245;28;19933;-78
2023/04/23 06:50:01;;;;;;;;;;;;;;;13.38;83.43;98072.19;5038615;28;19982;-77
2023/04/23 06:52:26;;;;;;;;;;;;;;;13.51;81.42;98068.03;5055387;28;19927;-78
2023/04/23 06:54:52;;;;;;;;;;;;;;;13.73;78.83;98064.81;5057261;28;20335;-78
2023/04/23 06:57:17;;;;;;;;;;;;;;;13.73;78.99;98062.13;5018137;28;19925;-81
2023/04/23 06:59:42;;;;;;;;;;;;;;;13.67;79.05;98064.09;5033995;28;19932;-79
2023/04/23 07:02:08;;;;;;;;;;;;;;;13.72;79.27;98071.25;5052211;28;19917;-79
2023/04/23 07:04:33;;;;;;;;;;;;;;;13.71;78.70;98066.97;5050199;28;19921;-78
2023/04/23 07:06:59;;;;;;;;;;;;;;;13.63;79.52;98064.94;5050945;28;19931;-78
2023/04/23 07:09:25;;;;;;;;;;;;;;;13.66;79.04;98059.00;5049240;28;19948;-78
2023/04/23 07:11:50;;;;;;;;;;;;;;;13.71;79.16;98057.06;5049095;28;20019;-78
2023/04/23 07:14:15;;;;;;;;;;;;;;;13.89;77.28;98052.81;5054106;28;20420;-78
2023/04/23 07:16:41;;;;;;;;;;;;;;;13.86;77.70;98056.88;5055079;28;19917;-78
2023/04/23 07:19:06;;;;;;;;;;;;;;;13.68;78.60;98052.25;5020464;28;19939;-77
2023/04/23 07:21:31;;;;;;;;;;;;;;;13.77;77.65;98053.22;5052592;28;19928;-78
2023/04/23 07:24:05;;;;;;;;;;;;;;;13.51;76.45;98052.75;5052433;28;19927;-78
2023/04/23 07:26:30;;;;;;;;;;;;;;;13.78;77.47;98054.81;5046599;28;19950;-77
2023/04/23 07:28:56;;;;;;;;;;;;;;;13.72;77.31;98049.78;5048739;28;20447;-77
2023/04/23 07:31:22;;;;;;;;;;;;;;;13.72;76.54;98047.91;5022829;28;19921;-78
2023/04/23 07:33:48;;;;;;;;;;;;;;;13.71;76.25;98056.25;5018517;28;19927;-79
2023/04/23 07:36:13;;;;;;;;;;;;;;;13.61;77.14;98064.44;5046055;28;19920;-77
2023/04/23 07:38:38;;;;;;;;;;;;;;;13.64;76.20;98056.59;5034404;28;19916;-79
2023/04/23 07:41:04;;;;;;;;;;;;;;;13.41;76.24;98052.84;5030013;28;19982;-78
2023/04/23 07:43:29;;;;;;;;;;;;;;;13.61;75.64;98054.50;5013176;28;20812;-79
2023/04/23 07:45:54;;;;;;;;;;;;;;;13.57;75.56;98048.09;5046904;28;19939;-77
2023/04/23 07:48:20;;;;;;;;;;;;;;;13.45;75.98;98042.38;5036594;28;19925;-79
2023/04/23 07:50:45;;;;;;;;;;;;;;;13.54;74.94;98041.44;5043932;28;19929;-78
2023/04/23 07:53:10;;;;;;;;;;;;;;;13.59;74.32;98045.13;5045324;28;19921;-78
2023/04/23 07:55:36;;;;;;;;;;;;;;;13.52;74.70;98048.16;5045289;28;19935;-78
2023/04/23 07:58:01;;;;;;;;;;;;;;;13.58;74.18;98046.22;5037735;28;19971;-79
2023/04/23 08:00:26;;;;;;;;;;;;;;;13.61;73.79;98043.75;5046130;28;19990;-80
2023/04/23 08:02:52;;;;;;;;;;;;;;;13.25;74.47;98023.84;5046474;28;19971;-79
2023/04/23 08:05:17;;;;;;;;;;;;;;;13.60;73.56;98028.78;5032786;28;19916;-79
2023/04/23 08:07:42;;;;;;;;;;;;;;;13.60;73.56;98026.09;5041443;28;20023;-83
2023/04/23 08:10:08;;;;;;;;;;;;;;;13.77;72.26;98022.91;5056433;28;19975;-81
2023/04/23 08:12:34;;;;;;;;;;;;;;;13.78;72.16;98019.16;5057461;28;20313;-83
2023/04/23 08:15:00;;;;;;;;;;;;;;;13.80;72.64;98012.44;5034190;28;19920;-79
2023/04/23 08:17:25;;;;;;;;;;;;;;;13.73;72.78;98011.97;5046990;28;20440;-78
2023/04/23 08:19:50;;;;;;;;;;;;;;;13.79;73.12;98007.31;5052824;28;19942;-78
2023/04/23 08:22:16;;;;;;;;;;;;;;;13.88;72.95;98019.00;5053590;28;19928;-77
2023/04/23 08:24:42;;;;;;;;;;;;;;;13.83;72.90;98016.38;5035566;28;20396;-79
2023/04/23 08:27:07;;;;;;;;;;;;;;;13.88;73.23;98016.31;5048250;28;20380;-79
2023/04/23 08:29:32;;;;;;;;;;;;;;;13.96;72.97;98023.72;5033756;28;20010;-79
2023/04/23 08:31:58;;;;;;;;;;;;;;;13.97;72.09;98023.44;5047132;28;20385;-79
2023/04/23 08:34:23;;;;;;;;;;;;;;;13.91;72.54;98019.22;5048747;28;19921;-79
2023/04/23 08:36:48;;;;;;;;;;;;;;;13.79;73.12;98004.66;5044690;28;19928;-79
2023/04/23 08:39:14;;;;;;;;;;;;;;;13.82;73.63;98002.19;5036441;28;19952;-77
2023/04/23 08:41:43;;;;;;;;;;;;;;;14.09;72.27;98009.56;5048246;28;19920;-79
2023/04/23 08:44:09;;;;;;;;;;;;;;;14.01;72.26;98018.28;5045899;28;20377;-76
2023/04/23 08:46:35;;;;;;;;;;;;;;;14.15;72.08;98017.25;5050223;28;19928;-80
2023/04/23 08:49:02;;;;;;;;;;;;;;;14.30;71.42;98008.22;5039729;28;19936;-81
2023/04/23 08:51:29;;;;;;;;;;;;;;;13.96;71.57;98007.63;5021938;28;20403;-79
2023/04/23 08:53:57;;;;;;;;;;;;;;;13.83;73.13;98008.34;5048750;28;19964;-80
2023/04/23 08:56:23;;;;;;;;;;;;;;;14.30;72.15;98008.22;5054084;22;19925;-79
2023/04/23 08:58:49;;;;;;;;;;;;;;;14.32;71.73;98018.66;5041914;28;20007;-79
2023/04/23 09:01:16;;;;;;;;;;;;;;;14.35;71.33;98013.50;5045313;28;19992;-79
2023/04/23 09:03:41;;;;;;;;;;;;;;;14.44;70.79;98016.34;5043256;28;20312;-79
2023/04/23 09:06:06;;;;;;;;;;;;;;;14.59;70.52;98019.53;5041745;28;19931;-79
2023/04/23 09:08:32;;;;;;;;;;;;;;;14.56;70.64;98022.03;5049259;28;19916;-79
2023/04/23 09:10:59;;;;;;;;;;;;;;;14.45;70.53;98017.91;5021849;28;19921;-77
2023/04/23 09:13:24;;;;;;;;;;;;;;;14.52;70.12;98019.13;5040342;28;19929;-77
2023/04/23 09:15:50;;;;;;;;;;;;;;;14.58;69.37;98017.97;5040407;28;19921;-77
2023/04/23 09:18:16;;;;;;;;;;;;;;;14.53;69.61;98006.50;5048510;28;19931;-77
2023/04/23 09:20:42;;;;;;;;;;;;;;;14.60;68.05;97999.66;5043340;28;19955;-77
2023/04/23 09:23:08;;;;;;;;;;;;;;;14.48;69.89;97996.63;5040249;28;19925;-77
2023/04/23 09:25:33;;;;;;;;;;;;;;;14.74;68.92;97984.34;5042846;28;19921;-77
2023/04/23 09:28:02;;;;;;;;;;;;;;;14.84;68.12;97989.56;5045970;28;20330;-77
2023/04/23 09:30:28;;;;;;;;;;;;;;;14.91;68.38;97989.16;5044528;28;19974;-77
2023/04/23 09:32:53;;;;;;;;;;;;;;;14.98;67.68;97989.59;5038701;28;19994;-77
2023/04/23 09:35:19;;;;;;;;;;;;;;;15.01;68.50;97992.47;5041128;28;19936;-77
2023/04/23 09:37:49;;;;;;;;;;;;;;;15.03;66.86;97984.91;5047404;28;22157;-77
2023/04/23 09:40:15;;;;;;;;;;;;;;;15.33;67.26;97980.03;5047691;28;19928;-77
2023/04/23 09:42:46;;;;;;;;;;;;;;;15.46;66.47;97973.88;5051696;28;20405;-77
2023/04/23 09:45:12;;;;;;;;;;;;;;;15.47;66.69;97978.13;5046454;28;19974;-77
2023/04/23 09:47:38;;;;;;;;;;;;;;;15.56;66.37;97979.03;5039242;28;19941;-77
2023/04/23 09:50:04;;;;;;;;;;;;;;;15.65;66.63;97969.16;5031844;28;19967;-77
2023/04/23 09:52:33;;;;;;;;;;;;;;;15.66;66.22;97968.84;5027304;28;19960;-77
2023/04/23 09:55:02;;;;;;;;;;;;;;;15.82;65.54;97963.91;5018570;28;20627;-77
2023/04/23 09:57:28;;;;;;;;;;;;;;;15.83;65.33;97970.91;5015367;28;19929;-77
2023/04/23 09:59:56;;;;;;;;;;;;;;;15.82;66.28;97963.13;5015991;28;20291;-77
2023/04/23 10:02:25;;;;;;;;;;;;;;;16.00;65.82;97967.56;5010156;28;19921;-77
2023/04/23 10:04:51;;;;;;;;;;;;;;;16.13;65.24;97978.28;5021053;28;20376;-77
2023/04/23 10:07:17;;;;;;;;;;;;;;;16.15;64.98;97978.75;5020171;28;19933;-78
2023/04/23 10:09:42;;;;;;;;;;;;;;;16.29;65.10;97976.78;5018305;28;19928;-78
2023/04/23 10:12:08;;;;;;;;;;;;;;;16.33;64.84;97966.22;5017851;28;20343;-77
2023/04/23 10:14:33;;;;;;;;;;;;;;;16.42;64.45;97970.53;5019196;28;19921;-78
2023/04/23 10:17:00;;;;;;;;;;;;;;;16.40;62.78;97983.53;5032746;28;19921;-78
2023/04/23 10:19:27;;;;;;;;;;;;;;;16.38;64.49;97974.19;5021695;28;19921;-77
2023/04/23 10:21:59;;;;;;;;;;;;;;;16.36;63.84;97968.28;5022927;28;19917;-78
2023/04/23 10:24:27;;;;;;;;;;;;;;;16.48;63.29;97963.16;5007522;28;20362;-78
2023/04/23 10:26:55;;;;;;;;;;;;;;;16.22;64.25;97960.28;5025534;28;20315;-78
2023/04/23 10:29:24;;;;;;;;;;;;;;;16.35;63.73;97969.41;5020589;28;19924;-78
2023/04/23 10:31:51;;;;;;;;;;;;;;;16.38;63.57;97964.19;5037392;28;19925;-78
2023/04/23 10:34:17;;;;;;;;;;;;;;;16.32;63.48;97973.50;5024479;28;19917;-77
2023/04/23 10:36:42;;;;;;;;;;;;;;;16.49;62.55;97959.34;5022306;28;19948;-77
2023/04/23 10:39:09;;;;;;;;;;;;;;;16.62;61.72;97953.09;5019894;28;19971;-78
2023/04/23 10:41:36;;;;;;;;;;;;;;;16.82;61.51;97963.34;5022896;28;19925;-78
2023/04/23 10:44:02;;;;;;;;;;;;;;;17.07;61.08;97959.97;5020002;28;20323;-78
2023/04/23 10:46:28;;;;;;;;;;;;;;;17.15;60.79;97959.22;5020068;28;19925;-78
2023/04/23 10:49:09;;;;;;;;;;;;;;;17.28;58.87;97948.63;5026259;28;20039;-78
2023/04/23 10:51:35;;;;;;;;;;;;;;;17.37;59.43;97955.63;5022503;28;19921;-78
2023/04/23 10:54:03;;;;;;;;;;;;;;;17.38;59.56;97946.44;5015147;28;19924;-78
2023/04/23 10:56:29;;;;;;;;;;;;;;;17.60;58.82;97957.16;5009722;28;19947;-78
2023/04/23 10:58:54;;;;;;;;;;;;;;;17.56;59.02;97961.56;5018435;28;20026;-78
2023/04/23 11:01:22;;;;;;;;;;;;;;;17.71;58.79;97947.59;5021189;28;19960;-78
2023/04/23 11:03:50;;;;;;;;;;;;;;;17.63;58.80;97961.91;5018566;28;20034;-78
2023/04/23 11:06:38;;;;;;;;;;;;;;;17.58;59.92;97958.56;5023142;28;20331;-78
2023/04/23 11:09:24;;;;;;;;;;;;;;;17.82;58.53;97948.13;5020303;28;19921;-78
2023/04/23 11:11:49;;;;;;;;;;;;;;;17.90;58.30;97944.63;5021127;28;22306;-78
2023/04/23 11:14:14;;;;;;;;;;;;;;;17.79;57.42;97954.13;5039927;28;19922;-77
2023/04/23 11:16:40;;;;;;;;;;;;;;;17.60;58.81;97948.25;5019028;28;20075;-77
2023/04/23 11:19:12;;;;;;;;;;;;;;;17.13;57.10;97941.75;5030907;28;19928;-78
2023/04/23 11:21:59;;;;;;;;;;;;;;;17.29;59.81;97945.63;5019017;28;21321;-78
2023/04/23 11:24:28;;;;;;;;;;;;;;;17.28;58.41;97938.63;5019391;28;19968;-77
2023/04/23 11:26:54;;;;;;;;;;;;;;;17.13;58.28;97933.66;5020463;28;19921;-78
2023/04/23 11:29:23;;;;;;;;;;;;;;;17.14;57.42;97932.56;5027153;28;19925;-78
2023/04/23 11:31:49;;;;;;;;;;;;;;;17.30;57.56;97924.84;5013622;28;20013;-77
2023/04/23 11:34:15;;;;;;;;;;;;;;;17.32;56.00;97926.09;5015711;28;20340;-78
2023/04/23 11:36:41;;;;;;;;;;;;;;;17.39;57.32;97923.72;5021066;28;19921;-78
2023/04/23 11:39:07;;;;;;;;;;;;;;;17.61;57.80;97912.03;5017474;28;20289;-78
2023/04/23 11:41:34;;;;;;;;;;;;;;;17.88;57.29;97907.16;5017755;28;19925;-77
2023/04/23 11:43:59;;;;;;;;;;;;;;;17.96;56.79;97909.03;5025308;28;21749;-78
2023/04/23 11:46:24;;;;;;;;;;;;;;;17.85;56.75;97904.28;5016187;28;20012;-77
2023/04/23 11:48:50;;;;;;;;;;;;;;;17.89;55.81;97897.13;5021781;28;20396;-78
2023/04/23 11:51:15;;;;;;;;;;;;;;;17.82;55.90;97894.13;4998854;28;20348;-78
2023/04/23 11:53:45;;;;;;;;;;;;;;;18.10;57.65;97889.97;5020275;28;20277;-78
2023/04/23 11:56:10;;;;;;;;;;;;;;;18.58;56.04;97889.72;5022496;28;19932;-78
2023/04/23 11:58:36;;;;;;;;;;;;;;;18.80;55.86;97881.38;5007180;28;19921;-78
2023/04/23 12:01:01;;;;;;;;;;;;;;;18.90;55.71;97888.28;5001282;28;19925;-78
2023/04/23 12:03:27;;;;;;;;;;;;;;;18.99;54.81;97884.44;5026402;28;19917;-78
2023/04/23 12:05:54;;;;;;;;;;;;;;;19.12;52.78;97888.81;5025069;28;19929;-77
2023/04/23 12:08:20;;;;;;;;;;;;;;;19.04;54.53;97880.75;5030816;28;20399;-77
2023/04/23 12:10:46;;;;;;;;;;;;;;;19.06;55.18;97882.03;5032605;28;19913;-78
2023/04/23 12:13:14;;;;;;;;;;;;;;;19.09;55.07;97884.06;5029379;28;19921;-78
2023/04/23 12:15:46;;;;;;;;;;;;;;;19.26;55.05;97870.44;5034721;28;20393;-78
2023/04/23 12:18:12;;;;;;;;;;;;;;;19.26;54.64;97870.44;5027043;28;19917;-78
2023/04/23 12:20:38;;;;;;;;;;;;;;;19.23;55.60;97879.22;5029608;28;19921;-78
2023/04/23 12:23:05;;;;;;;;;;;;;;;18.95;56.32;97875.41;5028577;28;19932;-78
2023/04/23 12:25:31;;;;;;;;;;;;;;;18.99;55.83;97875.53;5023299;28;19952;-78
2023/04/23 12:28:00;;;;;;;;;;;;;;;18.95;55.87;97870.00;5003756;28;19922;-78
2023/04/23 12:30:32;;;;;;;;;;;;;;;18.84;56.37;97866.06;5022277;28;20288;-78
2023/04/23 12:33:00;;;;;;;;;;;;;;;19.05;54.00;97866.91;5024716;28;19937;-78
2023/04/23 12:35:38;;;;;;;;;;;;;;;19.33;54.45;97859.88;5031048;28;19959;-78
2023/04/23 12:38:04;;;;;;;;;;;;;;;19.33;54.25;97856.41;5026262;28;20323;-78
2023/04/23 12:40:29;;;;;;;;;;;;;;;19.56;53.44;97854.19;5029903;28;20304;-78
2023/04/23 12:42:55;;;;;;;;;;;;;;;19.44;54.45;97858.41;5011289;28;19921;-78